Main page
METAR-TAF:

METAR-TAF

Airports :

Alpena County Regional Airport

Alpena, Michigan, United States

latitude: 45-04-18N, longitude: 083-33-52W, elevation: 689 ft

Current weather observation

The report was made 17 minutes ago, at 18:54 UTC
Wind 10 mph from the Northeast
Temperature 39°F
Humidity 32%
Pressure 30.30 in. Hg
Visibility: 10 miles
Clear sky

METAR: KAPN 241854Z AUTO 05009KT 10SM CLR 04/M11 A3030 RMK AO2 SLP270 T00391111

Time: 15:11 (19:11 UTC)

Forecast

The report was made 1 hour and 51 minutes ago, at 17:20 UTC
Forecast valid from 24 at 18 UTC to 25 at 18 UTC
Wind 12 mph from the North with gusts up to 23 mph
Visibility: 6 miles
Clear sky
From 25 at 0100 UTC
Wind 3 mph from variable directions
Visibility: 6 miles
Clear sky
From 25 at 1400 UTC
Wind 6 mph from the South/Southeast
Visibility: 6 miles
Clear sky

TAF: KAPN 241720Z 2418/2518 35010G20KT P6SM SKC FM250100 VRB03KT P6SM SKC FM251400 15005KT P6SM SKC

Weather observations and forecasts of more than 4000 airports (METAR and TAF reports).

The available stations are represented by yellow and red dots on the map.

Hover mouse over dot to see the name of the station.

Then click to see weather observations and forecasts.

To change the map : click on the green buttons with a black cross to zoom in, on the green button with a dash to zoom out, or on the green arrows for adjacent maps.


METAR-TAF: